Maatsuyker Island, Australia
Current Conditions -  °F | °C
As of 8:30 AM on Thursday 23 Oct 2014 (Local Time) from YMHB Reporting Station
Broken Clouds Broken Clouds  
Wind Chill: 54°   Ceiling: 3200
Heat Index: 54°   Visibility: 6mi
Dew Point: 37°   Wind: 15mph
Humidity: 54%   Direction: 160°SSE
Pressure: 30.3"   Gusts: NA
Location:  43.65°S, 146.28°E
Report Text: YMHB 222130Z 16013KT 9999 BKN032 12/03 Q1026
Loading
Personal Weather Stations






























Interactive Weather Map
Tropical Storm Tracking
New forecast layout! Learn more

10-Day Weather Forecast

Advertisements
Track Severe Weather on mobile